Time;durP1;ratioP1;P1;durP2;ratioP2;P2;SDS_P1;SDS_P2;PMS_P1;PMS_P2;Temp;Humidity;BMP_temperature;BMP_pressure;BME280_temperature;BME280_humidity;BME280_pressure;Samples;Min_cycle;Max_cycle;Signal;HPM_P1;HPM_P2
2022/05/09 00:01:57;;;;;;;;;;;;;;;16.72;60.11;100302.88;4338046;33;20055;-88
2022/05/09 00:04:22;;;;;;;;;;;;;;;16.47;60.10;100297.03;4333626;33;20054;-88
2022/05/09 00:06:48;;;;;;;;;;;;;;;16.47;60.10;100305.78;4334285;33;20027;-89
2022/05/09 00:09:13;;;;;;;;;;;;;;;16.67;60.10;100302.25;4334069;33;20018;-90
2022/05/09 00:11:38;;;;;;;;;;;;;;;16.67;60.10;100296.12;4334152;33;20011;-90
2022/05/09 00:14:03;;;;;;;;;;;;;;;16.71;60.11;100298.53;4333390;33;28909;-89
2022/05/09 00:16:33;;;;;;;;;;;;;;;16.40;60.10;100296.50;4322695;33;20948;-89
2022/05/09 00:18:58;;;;;;;;;;;;;;;16.46;60.09;100297.97;4330836;33;20296;-89
2022/05/09 00:21:24;;;;;;;;;;;;;;;16.57;60.10;100295.69;4331490;33;20003;-89
2022/05/09 00:23:51;;;;;;;;;;;;;;;16.54;60.09;100298.44;4332452;33;20035;-89
2022/05/09 00:26:17;;;;;;;;;;;;;;;16.51;60.09;100301.22;4331407;33;19980;-89
2022/05/09 00:28:42;;;;;;;;;;;;;;;16.41;60.09;100295.56;4331447;33;19999;-90
2022/05/09 00:31:07;;;;;;;;;;;;;;;16.40;60.09;100300.91;4333232;33;20015;-90
2022/05/09 00:33:33;;;;;;;;;;;;;;;16.33;60.09;100305.59;4320747;33;20011;-90
2022/05/09 00:35:58;;;;;;;;;;;;;;;16.43;60.09;100291.09;4333582;33;20015;-88
2022/05/09 00:38:24;;;;;;;;;;;;;;;16.29;60.08;100304.00;4333520;33;20027;-88
2022/05/09 00:43:34;;;;;;;;;;;;;;;16.30;60.08;100305.72;4335228;33;20010;-87
2022/05/09 00:46:00;;;;;;;;;;;;;;;16.18;60.08;100307.16;4335311;33;20322;-87
2022/05/09 00:48:25;;;;;;;;;;;;;;;16.04;60.07;100311.31;4321482;33;19971;-87
2022/05/09 00:50:50;;;;;;;;;;;;;;;16.13;60.07;100311.78;4334047;33;19987;-87
2022/05/09 00:53:16;;;;;;;;;;;;;;;16.01;60.07;100304.44;4333827;33;20023;-86
2022/05/09 00:55:45;;;;;;;;;;;;;;;16.14;60.08;100302.97;4332949;33;36430;-87
2022/05/09 00:58:10;;;;;;;;;;;;;;;15.86;60.06;100307.78;4333907;33;19968;-87
2022/05/09 01:00:35;;;;;;;;;;;;;;;15.80;60.06;100313.28;4321677;33;20340;-87
2022/05/09 01:03:01;;;;;;;;;;;;;;;15.70;60.06;100315.47;4333274;33;28733;-87
2022/05/09 01:05:30;;;;;;;;;;;;;;;15.91;60.06;100314.50;4333795;33;20035;-87
2022/05/09 01:07:55;;;;;;;;;;;;;;;15.90;60.06;100315.44;4334018;33;19984;-88
2022/05/09 01:10:21;;;;;;;;;;;;;;;15.70;60.05;100317.25;4333649;33;20231;-89
2022/05/09 01:12:46;;;;;;;;;;;;;;;15.74;60.05;100316.19;4333853;33;20070;-89
2022/05/09 01:15:13;;;;;;;;;;;;;;;15.97;60.06;100316.00;4337354;33;19991;-88
2022/05/09 01:17:39;;;;;;;;;;;;;;;15.62;60.04;100321.06;4348682;33;19991;-88
2022/05/09 01:20:05;;;;;;;;;;;;;;;15.72;60.05;100312.78;4349949;33;19990;-88
2022/05/09 01:22:31;;;;;;;;;;;;;;;15.81;60.06;100314.97;4336176;33;20050;-89
2022/05/09 01:24:56;;;;;;;;;;;;;;;15.64;60.06;100323.62;4348810;33;20090;-88
2022/05/09 01:27:22;;;;;;;;;;;;;;;15.67;60.05;100328.72;4348671;33;20413;-88
2022/05/09 01:30:02;;;;;;;;;;;;;;;15.70;60.05;100322.50;4336192;33;20003;-88
2022/05/09 01:32:30;;;;;;;;;;;;;;;15.62;60.04;100323.69;4336330;33;20349;-88
2022/05/09 01:35:00;;;;;;;;;;;;;;;15.52;60.04;100324.94;4348636;33;19993;-88
2022/05/09 01:37:25;;;;;;;;;;;;;;;15.58;60.04;100324.72;4348820;33;20371;-87
2022/05/09 01:39:50;;;;;;;;;;;;;;;15.54;60.03;100330.97;4336617;33;19991;-88
2022/05/09 01:42:15;;;;;;;;;;;;;;;15.67;60.05;100326.09;4335597;33;27466;-88
2022/05/09 01:44:41;;;;;;;;;;;;;;;15.76;60.05;100325.69;4348767;33;24037;-88
2022/05/09 01:49:50;;;;;;;;;;;;;;;15.40;60.04;100325.50;4350337;33;20010;-88
2022/05/09 01:52:15;;;;;;;;;;;;;;;15.45;60.03;100328.75;4352486;33;26578;-87
2022/05/09 01:54:43;;;;;;;;;;;;;;;15.45;60.04;100325.28;4352459;33;20261;-88
2022/05/09 01:57:08;;;;;;;;;;;;;;;15.49;60.04;100325.09;4349517;33;20044;-88
2022/05/09 01:59:33;;;;;;;;;;;;;;;15.75;60.06;100323.12;4348044;33;19979;-87
2022/05/09 02:01:59;;;;;;;;;;;;;;;15.82;60.06;100325.41;4348356;33;20003;-86
2022/05/09 02:04:25;;;;;;;;;;;;;;;15.53;60.04;100329.28;4348230;33;20043;-88
2022/05/09 02:06:50;;;;;;;;;;;;;;;15.64;60.05;100321.84;4348338;33;19987;-88
2022/05/09 02:09:16;;;;;;;;;;;;;;;15.56;60.05;100317.78;4348236;33;19988;-88
2022/05/09 02:11:41;;;;;;;;;;;;;;;15.52;60.04;100316.22;4348118;33;20003;-87
2022/05/09 02:14:06;;;;;;;;;;;;;;;15.49;60.04;100324.22;4348185;33;19984;-87
2022/05/09 02:16:32;;;;;;;;;;;;;;;15.43;60.04;100320.12;4345745;33;20039;-88
2022/05/09 02:18:57;;;;;;;;;;;;;;;15.52;60.04;100327.56;4345698;33;19983;-88
2022/05/09 02:21:22;;;;;;;;;;;;;;;15.57;60.04;100325.59;4345318;33;25375;-89
2022/05/09 02:23:47;;;;;;;;;;;;;;;15.57;60.05;100325.59;4345629;33;19991;-88
2022/05/09 02:26:13;;;;;;;;;;;;;;;15.29;60.03;100325.06;4345811;33;19968;-89
2022/05/09 02:28:38;;;;;;;;;;;;;;;15.14;60.02;100320.47;4345656;33;19988;-89
2022/05/09 02:31:03;;;;;;;;;;;;;;;15.26;60.02;100325.22;4345693;33;19987;-89
2022/05/09 02:33:28;;;;;;;;;;;;;;;15.35;60.03;100333.53;4345578;33;19976;-88
2022/05/09 02:35:54;;;;;;;;;;;;;;;15.32;60.03;100331.03;4345663;33;20054;-89
2022/05/09 02:38:19;;;;;;;;;;;;;;;15.40;60.03;100335.97;4345590;33;20262;-88
2022/05/09 02:40:44;;;;;;;;;;;;;;;15.43;60.03;100330.59;4345865;33;19988;-89
2022/05/09 02:43:10;;;;;;;;;;;;;;;15.46;60.03;100337.50;4345571;33;20310;-89
2022/05/09 02:45:35;;;;;;;;;;;;;;;15.61;60.04;100336.84;4345341;33;19976;-89
2022/05/09 02:48:00;;;;;;;;;;;;;;;15.50;60.04;100339.06;4345300;33;22095;-89
2022/05/09 02:50:26;;;;;;;;;;;;;;;15.43;60.04;100337.62;4333209;33;20600;-89
2022/05/09 02:52:51;;;;;;;;;;;;;;;15.43;60.03;100340.25;4344246;33;20317;-89
2022/05/09 02:55:16;;;;;;;;;;;;;;;15.57;60.04;100338.72;4345511;33;20354;-88
2022/05/09 02:57:42;;;;;;;;;;;;;;;15.50;60.04;100333.81;4345355;33;20014;-89
2022/05/09 03:00:08;;;;;;;;;;;;;;;15.60;60.04;100335.13;4332793;33;19988;-88
2022/05/09 03:02:34;;;;;;;;;;;;;;;15.68;60.05;100340.94;4345588;33;20302;-89
2022/05/09 03:04:59;;;;;;;;;;;;;;;15.44;60.03;100337.56;4334220;33;19986;-89
2022/05/09 03:07:24;;;;;;;;;;;;;;;15.53;60.03;100339.78;4334331;33;20008;-87
2022/05/09 03:09:50;;;;;;;;;;;;;;;15.43;60.03;100335.00;4345333;33;19999;-87
2022/05/09 03:12:18;;;;;;;;;;;;;;;15.54;60.04;100338.00;4345563;33;20250;-88
2022/05/09 03:14:43;;;;;;;;;;;;;;;15.55;60.05;100340.56;4345583;33;20035;-88
2022/05/09 03:17:08;;;;;;;;;;;;;;;15.58;60.04;100342.19;4347819;33;20065;-87
2022/05/09 03:19:33;;;;;;;;;;;;;;;15.49;60.04;100338.22;4338517;33;19991;-87
2022/05/09 03:21:59;;;;;;;;;;;;;;;15.45;60.04;100338.41;4320845;33;20317;-88
2022/05/09 03:24:24;;;;;;;;;;;;;;;15.39;60.03;100339.53;4321140;33;19975;-88
2022/05/09 03:26:49;;;;;;;;;;;;;;;15.58;60.04;100345.69;4321027;33;19995;-88
2022/05/09 03:29:15;;;;;;;;;;;;;;;15.47;60.04;100347.91;4321194;33;19984;-88
2022/05/09 03:31:40;;;;;;;;;;;;;;;15.56;60.05;100341.41;4308904;33;20325;-91
2022/05/09 03:34:05;;;;;;;;;;;;;;;15.71;60.05;100345.19;4334685;33;20003;-90
2022/05/09 03:36:31;;;;;;;;;;;;;;;15.80;60.05;100347.41;4321242;33;19998;-90
2022/05/09 03:38:57;;;;;;;;;;;;;;;15.80;60.05;100343.00;4309832;33;20008;-91
2022/05/09 03:41:22;;;;;;;;;;;;;;;15.87;60.06;100346.22;4309562;33;20543;-91
2022/05/09 03:43:47;;;;;;;;;;;;;;;15.84;60.05;100354.22;4309985;33;19999;-90
2022/05/09 03:46:12;;;;;;;;;;;;;;;15.85;60.05;100358.53;4311282;33;19991;-91
2022/05/09 03:48:38;;;;;;;;;;;;;;;15.97;60.06;100352.75;4312392;33;20013;-89
2022/05/09 03:51:03;;;;;;;;;;;;;;;16.22;60.07;100356.00;4328004;33;19991;-88
2022/05/09 03:53:28;;;;;;;;;;;;;;;16.27;60.08;100355.78;4321102;33;20271;-88
2022/05/09 03:55:53;;;;;;;;;;;;;;;16.24;60.08;100356.75;4308311;33;19988;-87
2022/05/09 03:58:19;;;;;;;;;;;;;;;16.51;60.09;100356.41;4320443;33;20275;-88
2022/05/09 04:00:44;;;;;;;;;;;;;;;16.68;60.10;100356.50;4320124;33;19987;-87
2022/05/09 04:03:09;;;;;;;;;;;;;;;16.81;60.11;100360.28;4319732;33;27523;-87
2022/05/09 04:05:35;;;;;;;;;;;;;;;16.84;60.10;100352.22;4333273;33;20011;-86
2022/05/09 04:08:01;;;;;;;;;;;;;;;16.97;60.11;100356.88;4335591;33;20010;-86
2022/05/09 04:10:30;;;;;;;;;;;;;;;17.07;60.11;100356.38;4309590;33;20019;-88
2022/05/09 04:12:56;;;;;;;;;;;;;;;17.19;60.13;100362.81;4309763;33;19979;-87
2022/05/09 04:18:05;;;;;;;;;;;;;;;17.47;60.14;100351.75;4335581;33;20005;-87
2022/05/09 04:20:30;;;;;;;;;;;;;;;17.48;60.14;100362.19;4321979;33;19988;-88
2022/05/09 04:22:56;;;;;;;;;;;;;;;17.57;60.15;100358.25;4322137;33;19994;-89
2022/05/09 04:25:22;;;;;;;;;;;;;;;17.63;60.15;100363.19;4309916;33;20002;-87
2022/05/09 04:27:47;;;;;;;;;;;;;;;17.93;60.17;100355.50;4322044;33;20010;-87
2022/05/09 04:30:13;;;;;;;;;;;;;;;17.93;60.17;100360.78;4321648;33;19986;-88
2022/05/09 04:32:39;;;;;;;;;;;;;;;17.90;60.16;100362.72;4335067;33;19999;-87
2022/05/09 04:35:04;;;;;;;;;;;;;;;17.98;60.17;100358.78;4322107;33;19993;-87
2022/05/09 04:37:30;;;;;;;;;;;;;;;18.06;60.17;100367.13;4321596;33;20006;-88
2022/05/09 04:39:56;;;;;;;;;;;;;;;18.09;60.18;100372.22;4322043;33;19998;-87
2022/05/09 04:42:21;;;;;;;;;;;;;;;18.05;60.17;100369.84;4335454;33;19980;-87
2022/05/09 04:44:47;;;;;;;;;;;;;;;18.19;60.18;100374.34;4321635;33;25822;-87
2022/05/09 04:47:13;;;;;;;;;;;;;;;18.17;60.18;100374.44;4335561;33;20035;-87
2022/05/09 04:49:38;;;;;;;;;;;;;;;18.15;60.17;100372.81;4321659;33;20714;-86
2022/05/09 04:52:03;;;;;;;;;;;;;;;18.04;60.17;100374.25;4321380;33;20026;-88
2022/05/09 04:54:29;;;;;;;;;;;;;;;18.15;60.17;100378.94;4321877;33;20298;-87
2022/05/09 04:56:54;;;;;;;;;;;;;;;18.20;60.18;100378.69;4321782;33;20330;-88
2022/05/09 04:59:19;;;;;;;;;;;;;;;18.27;60.18;100374.81;4335134;33;19976;-87
2022/05/09 05:01:44;;;;;;;;;;;;;;;18.43;60.19;100380.94;4334326;33;32803;-88
2022/05/09 05:04:10;;;;;;;;;;;;;;;18.58;60.20;100379.25;4321373;33;20019;-87
2022/05/09 05:06:35;;;;;;;;;;;;;;;18.78;60.22;100380.84;4321667;33;19995;-87
2022/05/09 05:09:02;;;;;;;;;;;;;;;18.77;60.21;100373.84;4321661;33;19972;-87
2022/05/09 05:11:27;;;;;;;;;;;;;;;18.95;60.22;100378.97;4321646;33;19995;-86
2022/05/09 05:13:52;;;;;;;;;;;;;;;18.90;60.22;100385.41;4309288;33;20254;-87
2022/05/09 05:16:18;;;;;;;;;;;;;;;19.05;60.23;100378.41;4306235;33;789478;-87
2022/05/09 05:18:44;;;;;;;;;;;;;;;18.95;60.22;100381.59;4348551;33;20011;-87
2022/05/09 05:21:10;;;;;;;;;;;;;;;19.02;60.23;100385.56;4349010;33;19989;-87
2022/05/09 05:23:37;;;;;;;;;;;;;;;19.23;60.24;100380.88;4336218;33;19991;-87
2022/05/09 05:26:02;;;;;;;;;;;;;;;19.37;60.24;100381.84;4336307;33;20001;-87
2022/05/09 05:28:27;;;;;;;;;;;;;;;19.59;60.25;100385.78;4348876;33;20340;-86
2022/05/09 05:30:53;;;;;;;;;;;;;;;19.75;60.26;100384.91;4348666;33;20003;-86
2022/05/09 05:33:18;;;;;;;;;;;;;;;19.86;60.28;100391.22;4349905;33;19980;-87
2022/05/09 05:35:44;;;;;;;;;;;;;;;19.87;60.27;100400.88;4350049;33;19987;-87
2022/05/09 05:38:09;;;;;;;;;;;;;;;19.84;60.26;100395.75;4336131;33;20022;-86
2022/05/09 05:40:34;;;;;;;;;;;;;;;19.90;60.27;100397.19;4336055;33;19983;-84
2022/05/09 05:42:59;;;;;;;;;;;;;;;19.99;60.28;100401.06;4344621;33;19976;-85
2022/05/09 05:45:24;;;;;;;;;;;;;;;19.96;60.28;100398.62;4326589;33;25862;-85
2022/05/09 05:47:50;;;;;;;;;;;;;;;19.93;60.28;100410.22;4340918;33;20258;-85
2022/05/09 05:50:16;;;;;;;;;;;;;;;20.08;60.27;100409.28;4309822;33;19995;-85
2022/05/09 05:52:41;;;;;;;;;;;;;;;20.09;60.28;100410.13;4335167;33;20010;-85
2022/05/09 05:55:06;;;;;;;;;;;;;;;20.29;60.29;100409.75;4335076;33;20015;-85
2022/05/09 05:57:32;;;;;;;;;;;;;;;20.29;60.29;100408.91;4335324;33;19987;-84
2022/05/09 06:00:04;;;;;;;;;;;;;;;20.38;60.29;100406.56;4328184;33;20417;-85
2022/05/09 06:02:30;;;;;;;;;;;;;;;20.72;60.32;100409.75;4347537;33;19991;-85
2022/05/09 06:04:55;;;;;;;;;;;;;;;20.92;60.32;100413.78;4349868;33;19975;-85
2022/05/09 06:07:22;;;;;;;;;;;;;;;21.03;60.33;100414.78;4348077;33;19998;-85
2022/05/09 06:09:49;;;;;;;;;;;;;;;20.99;60.33;100415.91;4349697;33;20026;-85
2022/05/09 06:12:14;;;;;;;;;;;;;;;20.99;60.32;100423.87;4349736;33;20001;-85
2022/05/09 06:14:39;;;;;;;;;;;;;;;20.96;60.33;100416.13;4348167;33;20326;-85
2022/05/09 06:17:05;;;;;;;;;;;;;;;20.92;60.32;100414.62;4348552;33;19979;-86
2022/05/09 06:19:30;;;;;;;;;;;;;;;21.06;60.33;100419.03;4349646;33;20022;-84
2022/05/09 06:21:56;;;;;;;;;;;;;;;21.29;60.34;100414.91;4349773;33;19994;-85
2022/05/09 06:24:21;;;;;;;;;;;;;;;21.29;60.34;100422.84;4348432;33;20365;-85
2022/05/09 06:26:48;;;;;;;;;;;;;;;21.10;60.34;100429.34;4348509;33;29971;-85
2022/05/09 06:29:13;;;;;;;;;;;;;;;21.47;60.35;100423.44;4349354;33;20007;-85
2022/05/09 06:31:39;;;;;;;;;;;;;;;21.62;60.37;100417.97;4348409;33;20242;-85
2022/05/09 06:34:04;;;;;;;;;;;;;;;21.69;60.36;100421.06;4335882;33;19991;-85
2022/05/09 06:36:35;;;;;;;;;;;;;;;21.77;60.37;100421.41;4349315;33;19975;-85
2022/05/09 06:39:01;;;;;;;;;;;;;;;21.96;60.38;100423.63;4349385;33;20006;-85
2022/05/09 06:41:26;;;;;;;;;;;;;;;21.92;60.37;100419.50;4348418;33;20333;-85
2022/05/09 06:43:51;;;;;;;;;;;;;;;22.10;60.39;100426.22;4349396;33;19998;-85
2022/05/09 06:46:16;;;;;;;;;;;;;;;22.18;60.39;100431.84;4349169;33;20015;-85
2022/05/09 06:48:42;;;;;;;;;;;;;;;22.19;60.39;100437.97;4348157;33;19983;-85
2022/05/09 06:51:07;;;;;;;;;;;;;;;21.94;60.38;100444.94;4348777;33;30113;-85
2022/05/09 06:53:32;;;;;;;;;;;;;;;21.90;60.38;100438.16;4348979;33;20019;-86
2022/05/09 06:55:57;;;;;;;;;;;;;;;21.93;60.37;100439.75;4333443;33;20010;-85
2022/05/09 06:58:24;;;;;;;;;;;;;;;21.81;60.37;100444.09;4333204;33;19967;-85
2022/05/09 07:00:50;;;;;;;;;;;;;;;21.85;60.38;100442.06;4333465;33;20044;-85
2022/05/09 07:03:15;;;;;;;;;;;;;;;21.78;60.37;100443.44;4333351;33;20002;-85
2022/05/09 07:05:43;;;;;;;;;;;;;;;21.83;60.38;100447.47;4334423;33;19972;-85
2022/05/09 07:08:09;;;;;;;;;;;;;;;21.84;60.37;100450.97;4333372;33;19994;-85
2022/05/09 07:10:35;;;;;;;;;;;;;;;21.70;60.37;100454.53;4334434;33;19988;-86
2022/05/09 07:13:01;;;;;;;;;;;;;;;21.64;60.37;100455.81;4334375;33;20283;-85
2022/05/09 07:15:28;;;;;;;;;;;;;;;21.81;60.37;100453.84;4334359;33;20047;-85
2022/05/09 07:17:54;;;;;;;;;;;;;;;21.80;60.38;100449.50;4321034;33;19988;-85
2022/05/09 07:20:20;;;;;;;;;;;;;;;21.82;60.37;100458.19;4334302;33;19995;-85
2022/05/09 07:22:45;;;;;;;;;;;;;;;21.97;60.39;100465.09;4334540;33;20273;-85
2022/05/09 07:25:13;;;;;;;;;;;;;;;21.94;60.38;100457.34;4333146;33;19980;-85
2022/05/09 07:27:38;;;;;;;;;;;;;;;22.03;60.39;100460.25;4334409;33;19968;-86
2022/05/09 07:30:04;;;;;;;;;;;;;;;22.16;60.39;100451.47;4333041;33;20015;-85
2022/05/09 07:32:29;;;;;;;;;;;;;;;22.21;60.40;100467.91;4321101;33;19999;-85
2022/05/09 07:34:54;;;;;;;;;;;;;;;22.24;60.39;100457.94;4333690;33;28767;-85
2022/05/09 07:37:20;;;;;;;;;;;;;;;22.29;60.40;100454.97;4333999;33;19964;-85
2022/05/09 07:39:46;;;;;;;;;;;;;;;22.40;60.41;100452.41;4334199;33;19984;-85
2022/05/09 07:42:11;;;;;;;;;;;;;;;22.57;60.42;100457.37;4336822;33;20254;-85
2022/05/09 07:44:37;;;;;;;;;;;;;;;22.65;60.42;100454.19;4334145;33;20026;-85
2022/05/09 07:47:02;;;;;;;;;;;;;;;22.89;60.43;100454.25;4334234;33;20317;-85
2022/05/09 07:49:27;;;;;;;;;;;;;;;22.84;60.43;100453.75;4332764;33;19996;-85
2022/05/09 07:51:53;;;;;;;;;;;;;;;22.94;60.43;100454.78;4333394;33;27639;-85
2022/05/09 07:54:18;;;;;;;;;;;;;;;23.21;60.45;100459.91;4324159;33;30426;-85
2022/05/09 07:56:44;;;;;;;;;;;;;;;23.41;60.45;100461.06;4347337;33;19998;-85
2022/05/09 07:59:09;;;;;;;;;;;;;;;23.29;60.45;100457.53;4348668;33;19990;-85
2022/05/09 08:01:34;;;;;;;;;;;;;;;23.41;60.45;100455.75;4348705;33;20005;-85
2022/05/09 08:04:00;;;;;;;;;;;;;;;23.32;60.45;100461.78;4347435;33;19975;-85
2022/05/09 08:06:26;;;;;;;;;;;;;;;23.50;60.46;100465.72;4348485;33;19975;-85
2022/05/09 08:08:51;;;;;;;;;;;;;;;23.50;60.47;100463.91;4348540;33;19975;-85
2022/05/09 08:11:17;;;;;;;;;;;;;;;23.57;60.47;100459.88;4348557;33;20391;-85
2022/05/09 08:13:42;;;;;;;;;;;;;;;23.62;60.47;100463.97;4347270;33;19988;-85
2022/05/09 08:16:07;;;;;;;;;;;;;;;23.71;60.47;100460.66;4348240;33;20076;-85
2022/05/09 08:18:33;;;;;;;;;;;;;;;23.85;60.48;100460.44;4347190;33;19990;-85
2022/05/09 08:20:59;;;;;;;;;;;;;;;23.94;60.48;100458.91;4348394;33;19983;-85
2022/05/09 08:23:25;;;;;;;;;;;;;;;24.20;60.50;100460.41;4348318;33;19994;-85
2022/05/09 08:25:51;;;;;;;;;;;;;;;24.14;60.50;100463.56;4334745;33;20031;-85
2022/05/09 08:28:16;;;;;;;;;;;;;;;24.28;60.50;100460.69;4346917;33;19991;-85
2022/05/09 08:30:43;;;;;;;;;;;;;;;24.15;60.50;100462.59;4347279;33;20043;-85
2022/05/09 08:33:15;;;;;;;;;;;;;;;24.09;60.49;100450.59;4348436;33;20051;-85
2022/05/09 08:35:41;;;;;;;;;;;;;;;24.39;60.51;100455.38;4347377;33;19994;-85
2022/05/09 08:38:07;;;;;;;;;;;;;;;24.55;60.51;100446.19;4334811;33;20357;-85
2022/05/09 08:40:35;;;;;;;;;;;;;;;24.50;60.51;100451.88;4348069;33;20023;-85
2022/05/09 08:43:19;;;;;;;;;;;;;;;24.76;60.53;100453.31;4334374;33;19990;-84
2022/05/09 08:45:50;;;;;;;;;;;;;;;24.93;60.54;100451.13;4348293;33;20333;-86
2022/05/09 08:48:15;;;;;;;;;;;;;;;25.21;60.55;100447.09;4347104;33;20062;-85
2022/05/09 08:50:58;;;;;;;;;;;;;;;25.46;60.57;100446.75;4348551;33;19980;-85
2022/05/09 08:53:24;;;;;;;;;;;;;;;25.66;60.58;100448.59;4350089;33;20317;-85
2022/05/09 08:55:51;;;;;;;;;;;;;;;25.78;60.58;100441.41;4349960;33;19972;-85
2022/05/09 08:58:39;;;;;;;;;;;;;;;25.87;60.59;100437.97;4348914;33;20019;-85
2022/05/09 09:01:13;;;;;;;;;;;;;;;25.99;60.59;100444.91;4350088;33;19983;-85
2022/05/09 09:03:39;;;;;;;;;;;;;;;26.12;60.60;100443.87;4349957;33;20109;-85
2022/05/09 09:06:11;;;;;;;;;;;;;;;26.25;60.61;100449.84;4348530;33;20337;-85
2022/05/09 09:08:37;;;;;;;;;;;;;;;26.43;60.61;100450.13;4336380;33;20345;-85
2022/05/09 09:11:22;;;;;;;;;;;;;;;26.67;60.63;100449.78;4336564;33;19995;-85
2022/05/09 09:13:50;;;;;;;;;;;;;;;26.74;60.63;100443.78;4336539;33;20433;-85
2022/05/09 09:16:24;;;;;;;;;;;;;;;26.65;60.63;100449.09;4349863;33;20337;-85
2022/05/09 09:19:08;;;;;;;;;;;;;;;26.62;60.62;100450.19;4350009;33;20050;-85
2022/05/09 09:21:39;;;;;;;;;;;;;;;26.70;60.63;100452.19;4350091;33;20043;-85
2022/05/09 09:24:17;;;;;;;;;;;;;;;26.81;60.64;100449.44;4349910;33;20013;-85
2022/05/09 09:26:48;;;;;;;;;;;;;;;26.75;60.63;100448.16;4339968;33;20349;-85
2022/05/09 09:29:21;;;;;;;;;;;;;;;26.72;60.64;100456.41;4333750;33;20051;-85
2022/05/09 09:31:47;;;;;;;;;;;;;;;26.49;60.62;100454.91;4346308;33;20011;-85
2022/05/09 09:34:24;;;;;;;;;;;;;;;26.48;60.62;100454.06;4333882;33;19984;-85
2022/05/09 09:36:51;;;;;;;;;;;;;;;26.47;60.63;100457.72;4336740;33;19957;-84
2022/05/09 09:39:19;;;;;;;;;;;;;;;26.45;60.62;100453.50;4346900;33;19988;-85
2022/05/09 09:41:44;;;;;;;;;;;;;;;26.58;60.63;100454.13;4333653;33;19995;-85
2022/05/09 09:44:14;;;;;;;;;;;;;;;26.58;60.63;100456.78;4346043;33;20011;-85
2022/05/09 09:46:58;;;;;;;;;;;;;;;26.41;60.62;100452.91;4335069;33;19990;-85
2022/05/09 09:49:24;;;;;;;;;;;;;;;26.66;60.63;100448.94;4334927;33;19972;-85
2022/05/09 09:51:49;;;;;;;;;;;;;;;26.72;60.64;100448.38;4333751;33;19987;-85
2022/05/09 09:54:19;;;;;;;;;;;;;;;26.87;60.65;100456.88;4338916;33;19991;-85
2022/05/09 09:56:45;;;;;;;;;;;;;;;26.90;60.65;100446.75;4348536;33;19998;-85
2022/05/09 09:59:13;;;;;;;;;;;;;;;26.66;60.63;100448.94;4348442;33;20349;-85
2022/05/09 10:01:38;;;;;;;;;;;;;;;26.80;60.64;100445.06;4349478;33;19998;-85
2022/05/09 10:04:10;;;;;;;;;;;;;;;26.92;60.64;100438.62;4347870;33;20007;-85
2022/05/09 10:06:54;;;;;;;;;;;;;;;26.88;60.65;100446.06;4349664;33;20038;-85
2022/05/09 10:09:20;;;;;;;;;;;;;;;26.81;60.64;100436.06;4349807;33;20043;-85
2022/05/09 10:11:46;;;;;;;;;;;;;;;26.96;60.65;100425.81;4336325;33;19997;-85
2022/05/09 10:14:12;;;;;;;;;;;;;;;27.09;60.65;100427.28;4349428;33;19990;-85
2022/05/09 10:16:41;;;;;;;;;;;;;;;27.08;60.66;100419.41;4349822;33;19968;-85
2022/05/09 10:19:09;;;;;;;;;;;;;;;27.23;60.66;100426.06;4349920;33;20135;-85
2022/05/09 10:27:11;;;;;;;;;;;;;;;27.66;60.69;100420.28;4349505;33;20043;-84
2022/05/09 10:29:37;;;;;;;;;;;;;;;27.65;60.68;100409.75;4348332;33;20026;-85
2022/05/09 10:32:03;;;;;;;;;;;;;;;27.63;60.68;100409.87;4348307;33;20006;-84
2022/05/09 10:34:42;;;;;;;;;;;;;;;27.89;60.69;100393.22;4335873;33;19995;-85
2022/05/09 10:37:14;;;;;;;;;;;;;;;28.13;60.71;100396.25;4348346;33;19998;-85
2022/05/09 10:39:42;;;;;;;;;;;;;;;28.06;60.70;100400.50;4348246;33;20410;-85
2022/05/09 10:42:09;;;;;;;;;;;;;;;28.25;60.72;100396.97;4348179;33;20027;-85
2022/05/09 10:44:34;;;;;;;;;;;;;;;28.44;60.73;100391.53;4348131;33;19979;-85
2022/05/09 10:47:10;;;;;;;;;;;;;;;28.32;60.72;100384.66;4349257;33;19990;-85
2022/05/09 10:49:46;;;;;;;;;;;;;;;28.29;60.72;100383.13;4335658;33;20019;-85
2022/05/09 10:52:17;;;;;;;;;;;;;;;28.26;60.71;100380.75;4347928;33;19987;-84
2022/05/09 10:54:45;;;;;;;;;;;;;;;28.36;60.72;100373.50;4342379;33;19992;-85
2022/05/09 10:57:29;;;;;;;;;;;;;;;28.64;60.74;100374.38;4334574;33;19976;-85
2022/05/09 10:59:58;;;;;;;;;;;;;;;29.04;60.75;100365.91;4334790;33;19999;-85
2022/05/09 11:02:24;;;;;;;;;;;;;;;28.98;60.75;100379.09;4345747;33;20016;-85
2022/05/09 11:04:50;;;;;;;;;;;;;;;28.87;60.75;100369.47;4333563;33;20026;-85
2022/05/09 11:07:39;;;;;;;;;;;;;;;28.85;60.75;100366.06;4333276;33;19979;-85
2022/05/09 11:10:10;;;;;;;;;;;;;;;28.81;60.75;100370.00;4330336;33;19973;-85
2022/05/09 11:12:36;;;;;;;;;;;;;;;28.93;60.75;100366.16;4345392;33;19999;-84
2022/05/09 11:15:14;;;;;;;;;;;;;;;29.20;60.76;100361.72;4333202;33;19968;-85
2022/05/09 11:17:58;;;;;;;;;;;;;;;29.48;60.78;100349.91;4333033;33;20346;-84
2022/05/09 11:20:29;;;;;;;;;;;;;;;29.64;60.79;100349.19;4333387;33;20051;-85
2022/05/09 11:23:00;;;;;;;;;;;;;;;29.94;60.80;100354.06;4334639;33;19975;-85
2022/05/09 11:25:32;;;;;;;;;;;;;;;29.75;60.79;100340.03;4333389;33;20369;-85
2022/05/09 11:28:16;;;;;;;;;;;;;;;29.94;60.80;100339.81;4333178;33;19980;-85
2022/05/09 11:30:45;;;;;;;;;;;;;;;29.85;60.79;100338.94;4349878;33;19984;-84
2022/05/09 11:33:15;;;;;;;;;;;;;;;30.19;60.82;100330.91;4348902;33;19996;-84
2022/05/09 11:35:41;;;;;;;;;;;;;;;30.22;60.82;100321.69;4345301;33;20349;-83
2022/05/09 11:38:24;;;;;;;;;;;;;;;30.49;60.82;100316.06;4334126;33;20064;-83
2022/05/09 11:40:56;;;;;;;;;;;;;;;30.98;60.85;100302.75;4345199;33;19988;-84
2022/05/09 11:43:34;;;;;;;;;;;;;;;30.99;60.86;100315.19;4334120;33;20035;-83
2022/05/09 11:46:01;;;;;;;;;;;;;;;31.20;60.86;100311.19;4334105;33;19975;-83
2022/05/09 11:48:26;;;;;;;;;;;;;;;30.93;60.86;100325.75;4344920;33;20035;-84
2022/05/09 11:51:01;;;;;;;;;;;;;;;30.41;60.82;100336.69;4332671;33;20047;-84
2022/05/09 11:53:26;;;;;;;;;;;;;;;29.04;60.76;100352.53;4332868;33;19995;-83
2022/05/09 11:55:52;;;;;;;;;;;;;;;27.91;60.70;100351.94;4344812;33;20302;-84
2022/05/09 11:58:17;;;;;;;;;;;;;;;26.93;60.65;100355.66;4344596;33;22866;-84
2022/05/09 12:00:44;;;;;;;;;;;;;;;26.45;60.63;100368.91;4333471;33;20696;-84
2022/05/09 12:03:09;;;;;;;;;;;;;;;25.94;60.61;100374.28;4334004;33;20012;-84
2022/05/09 12:05:35;;;;;;;;;;;;;;;25.29;60.58;100368.19;4344775;33;19994;-83
2022/05/09 12:08:16;;;;;;;;;;;;;;;25.14;60.57;100360.66;4332523;33;19995;-84
2022/05/09 12:10:42;;;;;;;;;;;;;;;25.47;60.58;100363.13;4332413;33;20047;-84
2022/05/09 12:13:07;;;;;;;;;;;;;;;25.31;60.58;100350.25;4344760;33;20053;-85
2022/05/09 12:15:35;;;;;;;;;;;;;;;25.19;60.56;100353.97;4333762;33;20058;-85
2022/05/09 12:18:07;;;;;;;;;;;;;;;24.86;60.55;100359.37;4332273;33;19976;-85
2022/05/09 12:20:38;;;;;;;;;;;;;;;24.30;60.52;100354.97;4333697;33;19987;-84
2022/05/09 12:23:04;;;;;;;;;;;;;;;23.97;60.51;100371.75;4333846;33;20262;-85
2022/05/09 12:25:36;;;;;;;;;;;;;;;23.45;60.48;100365.09;4345298;33;20036;-84
2022/05/09 12:28:10;;;;;;;;;;;;;;;22.95;60.45;100358.25;4335591;33;19980;-84
2022/05/09 12:30:35;;;;;;;;;;;;;;;22.85;60.45;100365.19;4334311;33;19988;-85
2022/05/09 12:33:01;;;;;;;;;;;;;;;22.90;60.45;100374.50;4335700;33;19976;-84
2022/05/09 12:35:26;;;;;;;;;;;;;;;22.59;60.43;100391.78;4346530;33;19998;-85
2022/05/09 12:37:51;;;;;;;;;;;;;;;22.31;60.43;100384.94;4346507;33;20338;-85
2022/05/09 12:40:23;;;;;;;;;;;;;;;22.20;60.41;100397.25;4335379;33;19994;-85
2022/05/09 12:42:50;;;;;;;;;;;;;;;21.91;60.39;100392.13;4334290;33;20351;-84
2022/05/09 12:45:15;;;;;;;;;;;;;;;21.87;60.40;100393.31;4346742;33;19994;-84
2022/05/09 12:47:40;;;;;;;;;;;;;;;21.81;60.40;100393.75;4346028;33;23511;-85
2022/05/09 12:50:24;;;;;;;;;;;;;;;21.70;60.38;100398.91;4345622;33;33794;-84